createdAt,value
2023-01-30T00:00:37.394Z,54.20
2023-01-30T00:03:03.911Z,63.50
2023-01-30T00:05:30.374Z,56.75
2023-01-30T00:07:57.184Z,54.60
2023-01-30T00:10:26.032Z,55.00
2023-01-30T00:12:52.730Z,54.50
2023-01-30T00:15:19.266Z,54.00
2023-01-30T00:17:45.802Z,53.20
2023-01-30T00:20:14.790Z,53.00
2023-01-30T00:22:49.237Z,56.00
2023-01-30T00:25:19.096Z,55.50
2023-01-30T00:27:45.675Z,55.60
2023-01-30T00:30:12.399Z,46.40
2023-01-30T00:32:38.872Z,53.50
2023-01-30T00:35:06.976Z,49.75
2023-01-30T00:37:33.447Z,45.00
2023-01-30T00:39:59.917Z,46.60
2023-01-30T00:42:44.876Z,42.50
2023-01-30T00:45:30.771Z,55.60
2023-01-30T00:47:57.872Z,48.75
2023-01-30T00:50:24.374Z,45.75
2023-01-30T00:52:51.244Z,50.67
2023-01-30T00:55:17.983Z,50.80
2023-01-30T00:57:44.868Z,44.80
2023-01-30T01:00:12.096Z,50.00
2023-01-30T01:02:38.674Z,47.00
2023-01-30T01:05:05.397Z,48.50
2023-01-30T01:07:31.866Z,47.50
2023-01-30T01:09:59.298Z,53.00
2023-01-30T01:12:26.009Z,46.25
2023-01-30T01:14:52.482Z,51.20
2023-01-30T01:17:19.168Z,51.00
2023-01-30T01:19:45.701Z,46.50
2023-01-30T01:22:12.226Z,44.50
2023-01-30T01:24:38.966Z,45.67
2023-01-30T01:27:05.513Z,47.50
2023-01-30T01:29:32.014Z,42.25
2023-01-30T01:31:58.771Z,47.75
2023-01-30T01:34:25.531Z,43.75
2023-01-30T01:36:54.292Z,47.75
2023-01-30T01:39:21.338Z,43.00
2023-01-30T01:41:48.186Z,44.75
2023-01-30T01:44:15.748Z,46.50
2023-01-30T01:46:42.580Z,49.60
2023-01-30T01:49:17.583Z,44.20
2023-01-30T01:51:51.937Z,42.50
2023-01-30T01:54:21.878Z,54.50
2023-01-30T01:56:49.302Z,49.50
2023-01-30T01:59:31.335Z,43.25
2023-01-30T02:02:01.291Z,50.75
2023-01-30T02:05:02.125Z,44.00
2023-01-30T02:07:40.253Z,52.50
2023-01-30T02:10:08.551Z,47.75
2023-01-30T02:12:35.064Z,50.00
2023-01-30T02:15:01.962Z,45.75
2023-01-30T02:17:28.490Z,47.00
2023-01-30T02:19:54.967Z,42.80
2023-01-30T02:22:21.459Z,47.60
2023-01-30T02:25:11.263Z,45.25
2023-01-30T02:27:58.987Z,46.60
2023-01-30T02:30:43.934Z,43.60
2023-01-30T02:33:24.478Z,44.40
2023-01-30T02:36:17.178Z,42.60
2023-01-30T02:39:02.675Z,46.00
2023-01-30T02:41:49.180Z,50.80
2023-01-30T02:44:39.031Z,47.75
2023-01-30T02:47:12.461Z,46.80
2023-01-30T02:49:39.012Z,49.00
2023-01-30T02:52:06.935Z,44.40
2023-01-30T02:54:33.482Z,49.25
2023-01-30T02:57:00.614Z,46.50
2023-01-30T02:59:27.063Z,51.50
2023-01-30T03:01:56.630Z,43.50
2023-01-30T03:04:52.299Z,46.00
2023-01-30T03:07:18.960Z,45.50
2023-01-30T03:09:45.492Z,44.60
2023-01-30T03:12:19.405Z,41.00
2023-01-30T03:14:46.335Z,45.75
2023-01-30T03:17:13.446Z,46.75
2023-01-30T03:19:40.237Z,57.75
2023-01-30T03:22:06.811Z,48.80
2023-01-30T03:24:33.585Z,48.25
2023-01-30T03:27:09.806Z,45.80
2023-01-30T03:29:36.600Z,49.00
2023-01-30T03:32:03.276Z,46.00
2023-01-30T03:34:32.319Z,41.75
2023-01-30T03:36:58.919Z,45.60
2023-01-30T03:39:25.638Z,49.75
2023-01-30T03:41:53.012Z,48.50
2023-01-30T03:44:19.622Z,45.00
2023-01-30T03:46:46.246Z,46.75
2023-01-30T03:49:12.858Z,49.50
2023-01-30T03:51:39.459Z,41.40
2023-01-30T03:54:05.926Z,44.00
2023-01-30T03:56:32.532Z,48.25
2023-01-30T03:58:59.176Z,48.50
2023-01-30T04:01:25.915Z,48.75
2023-01-30T04:03:52.496Z,46.80
2023-01-30T04:06:19.006Z,47.00
2023-01-30T04:08:45.577Z,54.25
2023-01-30T04:11:12.171Z,56.80
2023-01-30T04:13:38.726Z,40.00
2023-01-30T04:16:15.896Z,49.00
2023-01-30T04:18:42.609Z,48.25
2023-01-30T04:21:09.072Z,44.50
2023-01-30T04:23:35.801Z,43.50
2023-01-30T04:26:02.567Z,51.75
2023-01-30T04:28:29.336Z,45.50
2023-01-30T04:30:55.904Z,44.80
2023-01-30T04:33:22.453Z,46.25
2023-01-30T04:35:55.321Z,43.25
2023-01-30T04:38:22.929Z,45.40
2023-01-30T04:40:50.438Z,50.80
2023-01-30T04:43:17.076Z,41.20
2023-01-30T04:45:46.948Z,48.00
2023-01-30T04:48:13.593Z,46.80
2023-01-30T04:50:40.987Z,41.25
2023-01-30T04:53:07.772Z,41.40
2023-01-30T04:55:34.707Z,42.25
2023-01-30T04:58:01.462Z,50.50
2023-01-30T05:00:28.768Z,38.25
2023-01-30T05:02:56.300Z,41.60
2023-01-30T05:05:23.505Z,43.25
2023-01-30T05:07:50.094Z,40.00
2023-01-30T05:10:17.128Z,41.40
2023-01-30T05:12:43.925Z,40.00
2023-01-30T05:15:11.290Z,50.00
2023-01-30T05:17:38.535Z,45.67
2023-01-30T05:20:06.104Z,51.40
2023-01-30T05:22:32.754Z,45.50
2023-01-30T05:24:59.304Z,44.00
2023-01-30T05:27:26.290Z,43.40
2023-01-30T05:29:52.959Z,41.40
2023-01-30T05:32:20.136Z,45.20
2023-01-30T05:34:48.745Z,46.80
2023-01-30T05:37:15.531Z,49.50
2023-01-30T05:39:42.048Z,53.00
2023-01-30T05:42:08.520Z,45.20
2023-01-30T05:44:35.041Z,40.50
2023-01-30T05:47:01.597Z,52.00
2023-01-30T05:49:28.091Z,48.00
2023-01-30T05:51:54.654Z,47.33
2023-01-30T05:54:21.393Z,53.80
2023-01-30T05:56:51.351Z,52.00
2023-01-30T05:59:21.369Z,52.00
2023-01-30T06:01:47.924Z,41.60
2023-01-30T06:04:14.425Z,46.25
2023-01-30T06:06:40.920Z,53.00
2023-01-30T06:09:07.681Z,48.50
2023-01-30T06:11:34.167Z,48.40
2023-01-30T06:14:00.791Z,48.60
2023-01-30T06:16:27.373Z,47.75
2023-01-30T06:18:54.010Z,43.75
2023-01-30T06:21:20.555Z,38.00
2023-01-30T06:23:47.156Z,53.00
2023-01-30T06:26:13.955Z,47.00
2023-01-30T06:28:40.496Z,55.00
2023-01-30T06:31:08.112Z,41.00
2023-01-30T06:33:34.835Z,40.20
2023-01-30T06:36:01.327Z,45.00
2023-01-30T06:38:28.097Z,50.00
2023-01-30T06:40:54.607Z,56.50
2023-01-30T06:43:21.124Z,47.40
2023-01-30T06:45:47.720Z,44.50
2023-01-30T06:48:14.304Z,57.00
2023-01-30T06:50:40.824Z,54.60
2023-01-30T06:53:08.483Z,46.50
2023-01-30T06:55:36.100Z,48.00
2023-01-30T06:58:20.661Z,39.00
2023-01-30T07:00:47.160Z,44.67
2023-01-30T07:03:14.863Z,52.00
2023-01-30T07:05:42.033Z,48.40
2023-01-30T07:08:08.833Z,42.50
2023-01-30T07:10:36.047Z,45.50
2023-01-30T07:13:02.962Z,47.50
2023-01-30T07:15:29.910Z,41.80
2023-01-30T07:17:56.385Z,50.50
2023-01-30T07:20:22.980Z,45.50
2023-01-30T07:22:50.633Z,41.00
2023-01-30T07:25:17.452Z,42.75
2023-01-30T07:27:44.261Z,49.00
2023-01-30T07:30:11.127Z,40.25
2023-01-30T07:32:37.641Z,47.40
2023-01-30T07:35:05.944Z,47.20
2023-01-30T07:37:32.609Z,36.00
2023-01-30T07:39:59.101Z,48.75
2023-01-30T07:42:25.697Z,44.50
2023-01-30T07:44:52.178Z,40.00
2023-01-30T07:47:20.258Z,41.00
2023-01-30T07:49:46.763Z,49.25
2023-01-30T07:52:13.264Z,43.80
2023-01-30T07:54:39.737Z,40.40
2023-01-30T07:57:06.215Z,48.00
2023-01-30T07:59:32.746Z,34.20
2023-01-30T08:01:59.254Z,43.25
2023-01-30T08:04:25.752Z,37.60
2023-01-30T08:06:52.283Z,45.25
2023-01-30T08:09:18.815Z,35.60
2023-01-30T08:11:45.281Z,40.80
2023-01-30T08:14:11.753Z,44.60
2023-01-30T08:16:39.239Z,42.20
2023-01-30T08:19:06.413Z,36.40
2023-01-30T08:21:33.045Z,37.75
2023-01-30T08:24:01.010Z,35.00
2023-01-30T08:26:28.021Z,49.60
2023-01-30T08:28:56.153Z,85.33
2023-01-30T08:31:22.844Z,92.00
2023-01-30T08:33:49.420Z,57.80
2023-01-30T08:36:16.002Z,66.80
2023-01-30T08:38:42.665Z,66.25
2023-01-30T08:41:09.757Z,79.00
2023-01-30T08:43:36.426Z,90.00
2023-01-30T08:46:03.167Z,57.00
2023-01-30T08:48:36.737Z,61.00
2023-01-30T08:51:06.458Z,61.00
2023-01-30T08:53:33.421Z,66.25
2023-01-30T08:55:59.897Z,76.25
2023-01-30T08:58:26.443Z,74.50
2023-01-30T09:00:53.015Z,52.00
2023-01-30T09:03:20.043Z,44.00
2023-01-30T09:05:46.814Z,50.00
2023-01-30T09:08:13.326Z,38.33
2023-01-30T09:10:39.944Z,40.20
2023-01-30T09:13:08.565Z,47.25
2023-01-30T09:15:35.058Z,49.00
2023-01-30T09:18:01.581Z,46.00
2023-01-30T09:20:28.104Z,41.50
2023-01-30T09:22:54.764Z,38.40
2023-01-30T09:25:21.307Z,39.25
2023-01-30T09:27:48.393Z,42.25
2023-01-30T09:30:14.995Z,41.33
2023-01-30T09:32:41.474Z,50.25
2023-01-30T09:35:08.605Z,35.00
2023-01-30T09:37:35.267Z,34.50
2023-01-30T09:40:01.781Z,37.50
2023-01-30T09:42:46.361Z,31.80
2023-01-30T09:45:31.621Z,39.00
2023-01-30T09:48:01.732Z,34.50
2023-01-30T09:50:28.944Z,34.60
2023-01-30T09:52:57.843Z,36.00
2023-01-30T09:55:25.680Z,29.60
2023-01-30T09:57:52.846Z,27.40
2023-01-30T10:00:19.854Z,46.60
2023-01-30T10:03:06.294Z,41.00
2023-01-30T10:05:46.335Z,36.75
2023-01-30T10:08:18.676Z,34.00
2023-01-30T10:11:10.412Z,25.80
2023-01-30T10:13:37.244Z,39.20
2023-01-30T10:16:03.790Z,30.80
2023-01-30T10:18:48.868Z,38.00
2023-01-30T10:21:15.328Z,31.60
2023-01-30T10:23:44.849Z,39.40
2023-01-30T10:26:14.676Z,29.60
2023-01-30T10:28:47.621Z,33.50
2023-01-30T10:31:19.720Z,39.40
2023-01-30T10:33:57.998Z,36.50
2023-01-30T10:36:32.821Z,28.40
2023-01-30T10:39:01.264Z,28.00
2023-01-30T10:41:30.851Z,25.00
2023-01-30T10:44:03.072Z,21.00
2023-01-30T10:46:29.589Z,32.60
2023-01-30T10:49:02.712Z,26.00
2023-01-30T10:51:29.304Z,27.67
2023-01-30T10:54:03.314Z,29.00
2023-01-30T10:56:29.789Z,44.50
2023-01-30T10:59:11.667Z,36.50
2023-01-30T11:01:45.391Z,28.00
2023-01-30T11:04:23.260Z,32.20
2023-01-30T11:06:50.696Z,36.80
2023-01-30T11:09:17.211Z,28.00
2023-01-30T11:11:51.967Z,20.25
2023-01-30T11:14:18.748Z,22.20
2023-01-30T11:16:48.327Z,20.00
2023-01-30T11:19:21.878Z,23.00
2023-01-30T11:21:53.680Z,24.60
2023-01-30T11:24:24.563Z,21.00
2023-01-30T11:26:52.652Z,23.40
2023-01-30T11:29:22.155Z,23.00
2023-01-30T11:31:50.789Z,21.80
2023-01-30T11:34:19.097Z,21.00
2023-01-30T11:36:48.546Z,20.00
2023-01-30T11:39:18.779Z,27.00
2023-01-30T11:41:54.174Z,23.20
2023-01-30T11:44:26.239Z,25.00
2023-01-30T11:46:52.792Z,26.00
2023-01-30T11:49:45.663Z,23.00
2023-01-30T11:52:08.705Z,21.40
2023-01-30T11:54:38.162Z,24.25
2023-01-30T11:57:06.411Z,23.40
2023-01-30T11:59:39.780Z,19.75
2023-01-30T12:02:15.266Z,22.00
2023-01-30T12:04:45.411Z,20.80
2023-01-30T12:07:21.603Z,21.00
2023-01-30T12:09:50.440Z,18.60
2023-01-30T12:12:29.214Z,18.20
2023-01-30T12:15:01.613Z,16.60
2023-01-30T12:17:35.301Z,19.00
2023-01-30T12:20:14.125Z,22.25
2023-01-30T12:23:03.672Z,19.75
2023-01-30T12:25:37.121Z,20.80
2023-01-30T12:28:11.559Z,20.00
2023-01-30T12:30:53.165Z,22.00
2023-01-30T12:33:19.784Z,20.60
2023-01-30T12:35:52.355Z,20.00
2023-01-30T12:38:37.410Z,22.00
2023-01-30T12:41:26.978Z,22.50
2023-01-30T12:44:06.898Z,20.00
2023-01-30T12:46:48.906Z,19.75
2023-01-30T12:49:41.062Z,19.00
2023-01-30T12:52:29.694Z,22.40
2023-01-30T12:54:59.189Z,20.50
2023-01-30T12:57:37.556Z,22.00
2023-01-30T13:00:13.016Z,22.25
2023-01-30T13:02:58.342Z,20.60
2023-01-30T13:05:43.375Z,16.50
2023-01-30T13:08:12.686Z,26.25
2023-01-30T13:10:54.362Z,16.25
2023-01-30T13:13:33.337Z,21.00
2023-01-30T13:16:10.472Z,26.75
2023-01-30T13:18:57.520Z,33.00
2023-01-30T13:21:28.571Z,25.00
2023-01-30T13:24:18.050Z,26.75
2023-01-30T13:26:45.793Z,22.40
2023-01-30T13:29:16.606Z,20.00
2023-01-30T13:31:52.306Z,21.00
2023-01-30T13:34:34.190Z,14.00
2023-01-30T13:37:07.337Z,25.20
2023-01-30T13:39:36.608Z,30.00
2023-01-30T13:42:13.700Z,21.00
2023-01-30T13:44:43.148Z,19.20
2023-01-30T13:47:24.782Z,24.20
2023-01-30T13:50:02.464Z,22.00
2023-01-30T13:52:42.022Z,21.25
2023-01-30T13:55:23.978Z,30.75
2023-01-30T13:57:54.027Z,20.60
2023-01-30T14:00:34.039Z,27.40
2023-01-30T14:03:03.400Z,26.00
2023-01-30T14:05:48.767Z,23.40
2023-01-30T14:08:22.556Z,25.40
2023-01-30T14:10:49.695Z,28.00
2023-01-30T14:13:17.726Z,17.00
2023-01-30T14:15:55.474Z,19.40
2023-01-30T14:18:27.872Z,19.25
2023-01-30T14:21:12.294Z,21.00
2023-01-30T14:23:39.813Z,25.60
2023-01-30T14:26:06.427Z,31.00
2023-01-30T14:28:32.937Z,22.00
2023-01-30T14:31:00.490Z,20.25
2023-01-30T14:33:26.958Z,20.40
2023-01-30T14:36:02.339Z,25.80
2023-01-30T14:38:32.691Z,17.00
2023-01-30T14:40:59.217Z,18.40
2023-01-30T14:43:25.715Z,19.50
2023-01-30T14:45:58.890Z,28.60
2023-01-30T14:48:36.135Z,27.80
2023-01-30T14:51:22.281Z,25.40
2023-01-30T14:53:50.799Z,24.40
2023-01-30T14:56:18.066Z,25.75
2023-01-30T14:58:52.297Z,20.00
2023-01-30T15:01:18.986Z,27.40
2023-01-30T15:03:48.320Z,29.00
2023-01-30T15:06:15.025Z,26.80
2023-01-30T15:08:43.782Z,31.00
2023-01-30T15:11:13.078Z,28.50
2023-01-30T15:13:46.546Z,28.75
2023-01-30T15:16:28.436Z,20.00
2023-01-30T15:19:02.780Z,24.20
2023-01-30T15:21:41.752Z,22.75
2023-01-30T15:24:17.417Z,29.60
2023-01-30T15:26:52.812Z,35.40
2023-01-30T15:29:22.185Z,40.80
2023-01-30T15:31:55.424Z,27.00
2023-01-30T15:34:21.971Z,30.80
2023-01-30T15:36:48.517Z,49.50
2023-01-30T15:39:22.222Z,31.00
2023-01-30T15:41:49.479Z,22.25
2023-01-30T15:44:25.463Z,39.00
2023-01-30T15:47:01.208Z,24.00
2023-01-30T15:49:54.334Z,28.80
2023-01-30T15:52:21.707Z,31.00
2023-01-30T15:54:50.091Z,17.50
2023-01-30T15:57:20.895Z,19.00
2023-01-30T15:59:47.874Z,23.20
2023-01-30T16:02:16.581Z,28.60
2023-01-30T16:04:43.187Z,14.60
2023-01-30T16:07:29.908Z,20.80
2023-01-30T16:10:06.900Z,18.40
2023-01-30T16:12:34.403Z,23.60
2023-01-30T16:15:17.089Z,26.40
2023-01-30T16:17:48.789Z,13.25
2023-01-30T16:20:16.253Z,15.33
2023-01-30T16:22:44.306Z,17.40
2023-01-30T16:25:22.130Z,12.00
2023-01-30T16:27:50.423Z,14.50
2023-01-30T16:30:24.209Z,17.00
2023-01-30T16:32:51.995Z,8.80
2023-01-30T16:35:27.090Z,15.50
2023-01-30T16:37:55.894Z,9.00
2023-01-30T16:40:26.976Z,13.60
2023-01-30T16:43:01.208Z,10.80
2023-01-30T16:45:36.754Z,10.00
2023-01-30T16:48:19.501Z,11.00
2023-01-30T16:50:47.513Z,9.60
2023-01-30T16:53:19.049Z,16.60
2023-01-30T16:56:07.746Z,9.75
2023-01-30T16:58:35.283Z,14.20
2023-01-30T17:01:06.710Z,18.00
2023-01-30T17:03:36.884Z,13.75
2023-01-30T17:06:12.651Z,12.75
2023-01-30T17:08:45.393Z,12.40
2023-01-30T17:11:28.106Z,12.80
2023-01-30T17:14:13.139Z,15.00
2023-01-30T17:16:40.645Z,13.50
2023-01-30T17:19:07.226Z,13.00
2023-01-30T17:21:54.818Z,13.20
2023-01-30T17:24:22.651Z,10.60
2023-01-30T17:27:00.389Z,12.00
2023-01-30T17:29:41.817Z,10.00
2023-01-30T17:32:13.597Z,17.00
2023-01-30T17:34:41.833Z,9.75
2023-01-30T17:37:24.345Z,9.00
2023-01-30T17:39:51.733Z,5.00
2023-01-30T17:42:22.683Z,8.40
2023-01-30T17:44:49.851Z,12.00
2023-01-30T17:47:16.995Z,11.60
2023-01-30T17:49:43.456Z,9.00
2023-01-30T17:52:12.937Z,6.40
2023-01-30T17:54:39.437Z,6.00
2023-01-30T17:57:07.009Z,6.60
2023-01-30T17:59:33.647Z,7.00
2023-01-30T18:02:00.249Z,7.40
2023-01-30T18:04:27.093Z,5.40
2023-01-30T18:06:59.550Z,10.00
2023-01-30T18:09:27.183Z,8.00
2023-01-30T18:11:57.503Z,11.00
2023-01-30T18:14:24.471Z,8.40
2023-01-30T18:16:51.574Z,4.60
2023-01-30T18:19:18.699Z,8.50
2023-01-30T18:21:45.530Z,9.50
2023-01-30T18:24:12.551Z,9.00
2023-01-30T18:26:40.500Z,14.00
2023-01-30T18:29:07.747Z,12.00
2023-01-30T18:31:34.442Z,9.00
2023-01-30T18:34:01.051Z,5.00
2023-01-30T18:36:27.583Z,12.20
2023-01-30T18:38:54.373Z,11.20
2023-01-30T18:41:22.018Z,9.00
2023-01-30T18:43:53.354Z,13.00
2023-01-30T18:46:19.917Z,11.25
2023-01-30T18:48:46.649Z,8.00
2023-01-30T18:51:17.998Z,15.00
2023-01-30T18:53:45.446Z,22.00
2023-01-30T18:56:13.313Z,8.00
2023-01-30T18:58:39.896Z,27.50
2023-01-30T19:01:11.166Z,18.60
2023-01-30T19:03:37.981Z,20.75
2023-01-30T19:06:04.715Z,16.40
2023-01-30T19:08:31.267Z,25.00
2023-01-30T19:11:29.489Z,19.00
2023-01-30T19:13:56.501Z,5.75
2023-01-30T19:16:24.093Z,7.60
2023-01-30T19:18:50.882Z,4.50
2023-01-30T19:21:17.810Z,7.00
2023-01-30T19:23:44.537Z,11.60
2023-01-30T19:26:11.032Z,11.80
2023-01-30T19:28:37.987Z,8.60
2023-01-30T19:31:09.038Z,11.40
2023-01-30T19:33:35.987Z,19.00
2023-01-30T19:36:19.349Z,11.60
2023-01-30T19:38:46.683Z,19.60
2023-01-30T19:41:14.374Z,16.50
2023-01-30T19:43:41.497Z,13.80
2023-01-30T19:46:08.371Z,15.60
2023-01-30T19:48:38.921Z,12.80
2023-01-30T19:51:20.487Z,21.00
2023-01-30T19:53:50.208Z,23.80
2023-01-30T19:56:17.066Z,20.60
2023-01-30T19:58:43.648Z,10.75
2023-01-30T20:01:14.393Z,12.75
2023-01-30T20:03:41.561Z,13.00
2023-01-30T20:06:08.167Z,13.00
2023-01-30T20:08:36.468Z,10.00
2023-01-30T20:11:05.298Z,11.50
2023-01-30T20:13:31.955Z,12.20
2023-01-30T20:16:06.105Z,11.00
2023-01-30T20:18:38.198Z,11.00
2023-01-30T20:21:09.053Z,11.00
2023-01-30T20:23:35.993Z,10.40
2023-01-30T20:26:06.224Z,10.00
2023-01-30T20:28:33.522Z,14.50
2023-01-30T20:31:00.598Z,9.40
2023-01-30T20:33:29.181Z,13.00
2023-01-30T20:36:00.084Z,12.50
2023-01-30T20:38:26.610Z,13.40
2023-01-30T20:41:00.249Z,11.20
2023-01-30T20:43:29.437Z,10.00
2023-01-30T20:46:10.651Z,7.80
2023-01-30T20:48:38.607Z,11.25
2023-01-30T20:51:06.365Z,11.00
2023-01-30T20:53:33.316Z,13.80
2023-01-30T20:56:00.670Z,10.60
2023-01-30T20:58:27.814Z,20.40
2023-01-30T21:00:54.616Z,11.40
2023-01-30T21:03:23.334Z,12.00
2023-01-30T21:05:57.557Z,13.60
2023-01-30T21:08:24.265Z,12.60
2023-01-30T21:10:50.824Z,11.33
2023-01-30T21:13:17.356Z,11.60
2023-01-30T21:15:43.889Z,9.00
2023-01-30T21:18:10.407Z,12.80
2023-01-30T21:20:36.953Z,11.25
2023-01-30T21:23:03.572Z,11.00
2023-01-30T21:25:30.651Z,16.25
2023-01-30T21:27:57.199Z,10.60
2023-01-30T21:30:23.665Z,12.60
2023-01-30T21:32:50.144Z,19.00
2023-01-30T21:35:16.804Z,11.00
2023-01-30T21:38:02.180Z,11.25
2023-01-30T21:40:47.291Z,9.50
2023-01-30T21:43:13.794Z,15.00
2023-01-30T21:45:40.574Z,17.00
2023-01-30T21:48:07.182Z,14.50
2023-01-30T21:50:33.897Z,20.00
2023-01-30T21:53:01.784Z,14.20
2023-01-30T21:55:28.317Z,18.00
2023-01-30T21:57:54.849Z,16.00
2023-01-30T22:00:21.946Z,17.75
2023-01-30T22:02:51.658Z,16.50
2023-01-30T22:05:18.470Z,13.40
2023-01-30T22:07:45.107Z,16.40
2023-01-30T22:10:11.616Z,12.00
2023-01-30T22:12:40.206Z,16.20
2023-01-30T22:15:07.701Z,12.60
2023-01-30T22:17:34.336Z,20.00
2023-01-30T22:20:01.022Z,16.60
2023-01-30T22:22:30.675Z,17.00
2023-01-30T22:24:57.175Z,15.50
2023-01-30T22:27:23.712Z,13.50
2023-01-30T22:29:50.227Z,14.00
2023-01-30T22:32:16.721Z,11.60
2023-01-30T22:34:43.206Z,11.50
2023-01-30T22:37:12.057Z,16.40
2023-01-30T22:39:39.455Z,16.25
2023-01-30T22:42:07.118Z,11.00
2023-01-30T22:44:33.607Z,8.50
2023-01-30T22:47:00.165Z,18.40
2023-01-30T22:49:26.688Z,15.80
2023-01-30T22:51:54.248Z,19.00
2023-01-30T22:54:20.933Z,19.00
2023-01-30T22:56:48.782Z,13.00
2023-01-30T22:59:16.209Z,16.60
2023-01-30T23:01:44.858Z,14.00
2023-01-30T23:04:15.705Z,10.00
2023-01-30T23:06:42.366Z,9.00
2023-01-30T23:09:10.041Z,8.00
2023-01-30T23:11:38.290Z,11.20
2023-01-30T23:14:12.351Z,11.40
2023-01-30T23:16:40.513Z,14.00
2023-01-30T23:19:07.782Z,12.00
2023-01-30T23:21:39.096Z,15.33
2023-01-30T23:24:10.331Z,11.00
2023-01-30T23:33:26.865Z,12.40
2023-01-30T23:35:53.384Z,13.75
2023-01-30T23:38:20.160Z,15.75
2023-01-30T23:40:47.838Z,12.75
2023-01-30T23:43:17.666Z,13.25
2023-01-30T23:45:44.871Z,15.75
2023-01-30T23:48:11.622Z,16.20
2023-01-30T23:50:39.837Z,14.80
2023-01-30T23:56:38.873Z,12.80
2023-01-30T23:59:05.761Z,12.60
